Time;durP1;ratioP1;P1;durP2;ratioP2;P2;SDS_P1;SDS_P2;PMS_P1;PMS_P2;Temp;Humidity;BMP_temperature;BMP_pressure;BME280_temperature;BME280_humidity;BME280_pressure;Samples;Min_cycle;Max_cycle;Signal;HPM_P1;HPM_P2
2022/12/07 00:00:28;;;;;;;20.73;7.63;;;;;;;;;;8266457;28;20046;-88
2022/12/07 00:04:44;;;;;;;19.90;6.82;;;;;;;;;;8262722;28;20046;-85
2022/12/07 00:08:48;;;;;;;17.52;6.75;;;;;;;;;;8263492;28;20053;-88
2022/12/07 00:12:52;;;;;;;18.83;7.25;;;;;;;;;;8265919;28;20054;-88
2022/12/07 00:16:55;;;;;;;14.63;7.32;;;;;;;;;;8243952;28;20493;-88
2022/12/07 00:21:02;;;;;;;14.73;7.60;;;;;;;;;;8242888;28;20149;-87
2022/12/07 00:25:05;;;;;;;12.32;6.80;;;;;;;;;;8267440;28;20053;-87
2022/12/07 00:29:16;;;;;;;16.55;7.57;;;;;;;;;;8266760;28;20137;-86
2022/12/07 00:33:18;;;;;;;16.00;9.10;;;;;;;;;;8267085;28;20513;-88
2022/12/07 00:37:21;;;;;;;10.30;4.30;;;;;;;;;;8266206;28;20052;-87
2022/12/07 00:41:26;;;;;;;16.38;8.93;;;;;;;;;;8265542;28;20100;-86
2022/12/07 00:45:30;;;;;;;13.77;7.22;;;;;;;;;;8266564;28;20141;-86
2022/12/07 00:49:34;;;;;;;15.25;7.82;;;;;;;;;;8266334;28;20046;-86
2022/12/07 00:53:40;;;;;;;18.83;8.07;;;;;;;;;;8260668;28;20043;-87
2022/12/07 00:57:43;;;;;;;16.10;8.25;;;;;;;;;;8253863;28;20047;-87
2022/12/07 01:01:47;;;;;;;19.13;7.88;;;;;;;;;;8265995;28;20125;-88
2022/12/07 01:05:51;;;;;;;14.10;7.95;;;;;;;;;;8260456;28;20050;-87
2022/12/07 01:09:54;;;;;;;15.70;8.57;;;;;;;;;;8265429;28;20050;-86
2022/12/07 01:13:59;;;;;;;13.88;7.00;;;;;;;;;;8262418;28;20054;-88
2022/12/07 01:18:04;;;;;;;15.68;8.65;;;;;;;;;;8265516;28;20490;-86
2022/12/07 01:22:06;;;;;;;13.13;7.65;;;;;;;;;;8265335;28;20050;-86
2022/12/07 01:26:12;;;;;;;10.43;5.72;;;;;;;;;;8265292;28;20057;-88
2022/12/07 01:30:16;;;;;;;19.50;7.93;;;;;;;;;;8265004;28;20058;-85
2022/12/07 01:34:20;;;;;;;11.98;7.13;;;;;;;;;;8265055;28;20506;-87
2022/12/07 01:38:23;;;;;;;15.32;7.68;;;;;;;;;;8264590;28;20101;-87
2022/12/07 01:42:25;;;;;;;13.23;7.28;;;;;;;;;;8264724;28;20602;-86
2022/12/07 01:46:28;;;;;;;12.10;7.05;;;;;;;;;;8256752;28;20172;-88
2022/12/07 01:50:33;;;;;;;11.63;5.90;;;;;;;;;;8398048;23;20094;-89
2022/12/07 01:54:37;;;;;;;10.50;6.47;;;;;;;;;;8166402;29;20389;-87
2022/12/07 01:58:39;;;;;;;13.82;6.28;;;;;;;;;;8175135;29;20054;-88
2022/12/07 02:02:47;;;;;;;12.05;5.82;;;;;;;;;;8160035;29;20180;-87
2022/12/07 02:06:52;;;;;;;13.52;6.72;;;;;;;;;;8155466;29;20043;-89
2022/12/07 02:10:56;;;;;;;10.88;6.22;;;;;;;;;;8158657;29;20047;-85
2022/12/07 02:14:58;;;;;;;13.20;6.68;;;;;;;;;;8166707;29;20039;-88
2022/12/07 02:19:23;;;;;;;13.52;7.63;;;;;;;;;;8169966;29;20479;-87
2022/12/07 02:23:59;;;;;;;14.23;7.18;;;;;;;;;;8157456;29;20050;-86
2022/12/07 02:28:07;;;;;;;18.83;8.70;;;;;;;;;;8168266;29;20047;-86
2022/12/07 02:32:19;;;;;;;15.00;7.45;;;;;;;;;;8168878;29;20051;-85
2022/12/07 02:36:27;;;;;;;14.32;7.80;;;;;;;;;;8167765;29;20103;-86
2022/12/07 02:40:34;;;;;;;15.88;7.88;;;;;;;;;;8168295;29;20044;-84
2022/12/07 02:44:38;;;;;;;7.60;3.90;;;;;;;;;;8169060;29;20411;-84
2022/12/07 02:48:43;;;;;;;14.65;8.27;;;;;;;;;;8164962;29;20055;-84
2022/12/07 02:52:46;;;;;;;17.30;8.30;;;;;;;;;;8133243;29;20173;-84
2022/12/07 02:56:53;;;;;;;18.13;8.15;;;;;;;;;;8128115;29;20444;-84
2022/12/07 03:01:05;;;;;;;15.70;8.15;;;;;;;;;;8125409;29;20106;-87
2022/12/07 03:05:21;;;;;;;15.30;6.72;;;;;;;;;;8134809;29;20475;-88
2022/12/07 03:09:33;;;;;;;13.48;7.07;;;;;;;;;;8135309;29;20105;-86
2022/12/07 03:13:42;;;;;;;15.82;7.93;;;;;;;;;;8135241;29;20104;-84
2022/12/07 03:17:47;;;;;;;13.32;7.65;;;;;;;;;;8135634;29;20048;-87
2022/12/07 03:21:57;;;;;;;13.45;6.95;;;;;;;;;;8136194;29;20056;-87
2022/12/07 03:26:02;;;;;;;10.15;6.03;;;;;;;;;;8136087;29;20040;-86
2022/12/07 03:30:08;;;;;;;12.73;6.18;;;;;;;;;;8136121;29;20044;-82
2022/12/07 03:34:17;;;;;;;12.98;6.32;;;;;;;;;;8140640;29;20456;-85
2022/12/07 03:38:25;;;;;;;8.65;5.13;;;;;;;;;;8142077;29;20556;-86
2022/12/07 03:42:28;;;;;;;10.02;5.68;;;;;;;;;;8141368;29;20048;-84
2022/12/07 03:46:38;;;;;;;11.00;6.10;;;;;;;;;;8141209;29;20048;-86
2022/12/07 03:50:49;;;;;;;12.38;5.68;;;;;;;;;;8140965;29;20067;-86
2022/12/07 03:54:59;;;;;;;11.38;6.57;;;;;;;;;;8141012;29;20501;-86
2022/12/07 03:59:02;;;;;;;10.85;5.65;;;;;;;;;;8140964;29;20044;-83
2022/12/07 04:03:05;;;;;;;11.23;6.38;;;;;;;;;;8140621;29;20059;-86
2022/12/07 04:07:08;;;;;;;16.88;8.88;;;;;;;;;;8140792;29;20048;-83
2022/12/07 04:11:13;;;;;;;13.07;6.30;;;;;;;;;;8140539;29;20119;-86
2022/12/07 04:15:16;;;;;;;13.50;7.45;;;;;;;;;;8140349;29;20062;-85
2022/12/07 04:19:21;;;;;;;11.10;5.97;;;;;;;;;;8140311;29;20078;-83
2022/12/07 04:23:24;;;;;;;10.80;6.93;;;;;;;;;;8140271;29;20052;-83
2022/12/07 04:27:28;;;;;;;10.40;6.63;;;;;;;;;;8139944;29;20044;-86
2022/12/07 04:31:31;;;;;;;9.93;6.05;;;;;;;;;;8140037;29;20103;-84
2022/12/07 04:35:34;;;;;;;12.32;6.47;;;;;;;;;;8140216;29;20055;-86
2022/12/07 04:39:36;;;;;;;20.30;10.38;;;;;;;;;;8139644;29;20079;-84
2022/12/07 04:43:41;;;;;;;22.45;12.48;;;;;;;;;;8138942;29;20052;-83
2022/12/07 04:47:43;;;;;;;33.85;17.77;;;;;;;;;;8139825;29;20868;-83
2022/12/07 04:51:47;;;;;;;28.02;15.23;;;;;;;;;;8139252;29;20115;-86
2022/12/07 04:55:49;;;;;;;16.15;8.60;;;;;;;;;;8139654;29;20588;-83
2022/12/07 04:59:54;;;;;;;17.85;9.00;;;;;;;;;;8139022;29;20049;-82
2022/12/07 05:03:56;;;;;;;34.50;18.55;;;;;;;;;;8138945;29;20040;-84
2022/12/07 05:07:59;;;;;;;35.50;16.92;;;;;;;;;;8138917;29;20476;-85
2022/12/07 05:12:02;;;;;;;55.80;25.17;;;;;;;;;;8139100;29;20488;-84
2022/12/07 05:16:07;;;;;;;87.05;34.60;;;;;;;;;;8138681;29;20071;-87
2022/12/07 05:20:10;;;;;;;41.75;16.48;;;;;;;;;;8138490;29;20056;-86
2022/12/07 05:24:15;;;;;;;33.38;14.90;;;;;;;;;;8138143;29;20075;-83
2022/12/07 05:28:17;;;;;;;28.35;14.52;;;;;;;;;;8138406;29;20104;-86
2022/12/07 05:32:22;;;;;;;10.95;5.93;;;;;;;;;;8138122;29;20103;-86
2022/12/07 05:36:25;;;;;;;17.92;10.52;;;;;;;;;;8138110;29;20044;-86
2022/12/07 05:40:27;;;;;;;15.77;8.93;;;;;;;;;;8137983;29;20520;-85
2022/12/07 05:44:30;;;;;;;13.68;7.72;;;;;;;;;;8137724;29;20044;-87
2022/12/07 05:48:34;;;;;;;14.45;7.95;;;;;;;;;;8137795;29;20423;-85
2022/12/07 05:52:37;;;;;;;16.35;7.55;;;;;;;;;;8137459;29;20066;-86
2022/12/07 05:56:40;;;;;;;10.82;6.22;;;;;;;;;;8136991;29;20479;-86
2022/12/07 06:00:43;;;;;;;15.02;8.05;;;;;;;;;;8137577;29;20063;-84
2022/12/07 06:04:48;;;;;;;11.10;5.93;;;;;;;;;;8137209;29;20052;-84
2022/12/07 06:08:51;;;;;;;12.32;6.97;;;;;;;;;;8137413;29;20044;-86
2022/12/07 06:12:53;;;;;;;13.45;7.60;;;;;;;;;;8137242;29;20048;-83
2022/12/07 06:16:56;;;;;;;11.50;5.95;;;;;;;;;;8137094;29;20052;-84
2022/12/07 06:21:00;;;;;;;10.80;6.13;;;;;;;;;;8137113;29;20115;-86
2022/12/07 06:25:03;;;;;;;14.55;7.18;;;;;;;;;;8136906;29;20059;-84
2022/12/07 06:29:06;;;;;;;13.18;7.22;;;;;;;;;;8136891;29;20622;-86
2022/12/07 06:33:09;;;;;;;11.35;6.25;;;;;;;;;;8136967;29;20078;-83
2022/12/07 06:37:13;;;;;;;14.88;7.97;;;;;;;;;;8136856;29;20050;-87
2022/12/07 06:41:16;;;;;;;11.13;6.18;;;;;;;;;;8137194;29;20584;-87
2022/12/07 06:45:18;;;;;;;14.32;7.15;;;;;;;;;;8136810;29;20420;-86
2022/12/07 06:49:21;;;;;;;12.02;6.15;;;;;;;;;;8136459;29;20131;-86
2022/12/07 06:53:25;;;;;;;10.45;5.93;;;;;;;;;;8136554;29;20496;-87
2022/12/07 06:57:28;;;;;;;11.40;7.07;;;;;;;;;;8136548;29;20052;-86
2022/12/07 07:01:31;;;;;;;14.95;8.98;;;;;;;;;;8136445;29;20456;-87
2022/12/07 07:05:33;;;;;;;21.40;10.38;;;;;;;;;;8136463;29;20088;-83
2022/12/07 07:09:38;;;;;;;34.92;13.60;;;;;;;;;;8141911;29;20047;-87
2022/12/07 07:13:40;;;;;;;28.25;11.70;;;;;;;;;;8142248;29;20052;-87
2022/12/07 07:17:43;;;;;;;27.77;11.85;;;;;;;;;;8142199;29;20412;-86
2022/12/07 07:21:45;;;;;;;13.18;8.05;;;;;;;;;;8142072;29;20048;-84
2022/12/07 07:25:50;;;;;;;19.52;8.93;;;;;;;;;;8141768;29;20059;-86
2022/12/07 07:29:53;;;;;;;19.48;8.85;;;;;;;;;;8141861;29;20059;-85
2022/12/07 07:33:55;;;;;;;18.52;9.20;;;;;;;;;;8134306;29;20138;-86
2022/12/07 07:37:59;;;;;;;19.00;8.27;;;;;;;;;;8141540;29;20385;-85
2022/12/07 07:42:03;;;;;;;19.88;11.05;;;;;;;;;;8141583;29;20060;-87
2022/12/07 07:46:06;;;;;;;18.45;9.70;;;;;;;;;;8141591;29;20456;-85
2022/12/07 07:50:09;;;;;;;14.88;6.75;;;;;;;;;;8140735;29;20127;-87
2022/12/07 07:54:12;;;;;;;14.27;7.40;;;;;;;;;;8139673;29;20477;-87
2022/12/07 07:58:16;;;;;;;18.75;8.82;;;;;;;;;;8139150;29;20059;-86
2022/12/07 08:02:21;;;;;;;18.73;9.05;;;;;;;;;;8139184;29;20075;-87
2022/12/07 08:06:24;;;;;;;27.60;11.90;;;;;;;;;;8138901;29;20123;-87
2022/12/07 08:10:27;;;;;;;21.20;10.65;;;;;;;;;;8139386;29;20059;-87
2022/12/07 08:14:31;;;;;;;16.00;8.07;;;;;;;;;;8138902;29;20103;-87
2022/12/07 08:18:36;;;;;;;21.48;9.88;;;;;;;;;;8137573;29;20052;-86
2022/12/07 08:22:39;;;;;;;18.23;9.85;;;;;;;;;;8138589;29;20071;-88
2022/12/07 08:26:41;;;;;;;15.07;7.65;;;;;;;;;;8138419;29;20060;-83
2022/12/07 08:30:46;;;;;;;22.73;11.77;;;;;;;;;;8138280;29;20051;-85
2022/12/07 08:34:49;;;;;;;20.92;10.80;;;;;;;;;;8138268;29;20044;-86
2022/12/07 08:38:52;;;;;;;21.15;10.93;;;;;;;;;;8138254;29;20058;-84
2022/12/07 08:42:55;;;;;;;18.02;9.00;;;;;;;;;;8137993;29;20147;-86
2022/12/07 08:47:02;;;;;;;17.13;8.55;;;;;;;;;;8138023;29;20049;-86
2022/12/07 08:51:05;;;;;;;17.48;8.95;;;;;;;;;;8091516;29;1382595;-85
2022/12/07 08:55:12;;;;;;;18.80;9.23;;;;;;;;;;8126338;29;20424;-86
2022/12/07 08:59:18;;;;;;;10.60;5.70;;;;;;;;;;8139710;29;20052;-86
2022/12/07 09:03:22;;;;;;;12.77;7.50;;;;;;;;;;8138982;29;20052;-85
2022/12/07 09:07:26;;;;;;;16.88;7.95;;;;;;;;;;8139376;29;20484;-87
2022/12/07 09:11:29;;;;;;;8.93;5.30;;;;;;;;;;8138816;29;20058;-88
2022/12/07 09:15:32;;;;;;;17.27;6.90;;;;;;;;;;8133981;29;20051;-86
2022/12/07 09:19:41;;;;;;;13.32;6.30;;;;;;;;;;8135920;29;20051;-83
2022/12/07 09:23:44;;;;;;;15.98;7.32;;;;;;;;;;8138457;29;20393;-87
2022/12/07 09:27:46;;;;;;;11.73;6.60;;;;;;;;;;8138306;29;20044;-87
2022/12/07 09:31:49;;;;;;;22.48;8.98;;;;;;;;;;8137886;29;20048;-88
2022/12/07 09:35:54;;;;;;;21.75;8.98;;;;;;;;;;8138055;29;20060;-88
2022/12/07 09:39:56;;;;;;;19.00;7.75;;;;;;;;;;8138061;29;20492;-87
2022/12/07 09:44:06;;;;;;;20.83;7.45;;;;;;;;;;8138267;29;20504;-86
2022/12/07 09:48:19;;;;;;;24.92;8.65;;;;;;;;;;8137722;29;20091;-88
2022/12/07 09:52:29;;;;;;;25.55;9.13;;;;;;;;;;8137707;29;20134;-86
2022/12/07 09:56:32;;;;;;;25.50;9.45;;;;;;;;;;8137529;29;20069;-90
2022/12/07 10:00:38;;;;;;;23.48;9.60;;;;;;;;;;8137553;29;20749;-83
2022/12/07 10:04:40;;;;;;;12.60;5.88;;;;;;;;;;8137388;29;20048;-88
2022/12/07 10:08:45;;;;;;;16.88;7.95;;;;;;;;;;8137786;29;20668;-83
2022/12/07 10:13:00;;;;;;;20.88;8.35;;;;;;;;;;8137213;29;20128;-88
2022/12/07 10:17:03;;;;;;;24.67;10.55;;;;;;;;;;8130297;29;20499;-88
2022/12/07 10:21:12;;;;;;;19.90;10.00;;;;;;;;;;8136137;29;20044;-82
2022/12/07 10:25:20;;;;;;;16.25;8.02;;;;;;;;;;8137090;29;20088;-85
2022/12/07 10:29:24;;;;;;;17.15;7.63;;;;;;;;;;8137371;29;20055;-90
2022/12/07 10:33:36;;;;;;;14.18;6.85;;;;;;;;;;8136992;29;20048;-87
2022/12/07 10:37:41;;;;;;;12.77;6.68;;;;;;;;;;8137359;29;20059;-89
2022/12/07 10:41:57;;;;;;;15.50;7.55;;;;;;;;;;8138166;29;20083;-88
2022/12/07 10:46:33;;;;;;;16.45;7.60;;;;;;;;;;8143148;29;20138;-88
2022/12/07 10:50:56;;;;;;;30.45;14.20;;;;;;;;;;8142844;29;20114;-88
2022/12/07 10:55:15;;;;;;;15.75;7.40;;;;;;;;;;8142926;29;20076;-88
2022/12/07 10:59:44;;;;;;;13.05;6.90;;;;;;;;;;8127431;29;20052;-89
2022/12/07 11:04:00;;;;;;;16.15;7.65;;;;;;;;;;8139088;29;20557;-83
2022/12/07 11:08:13;;;;;;;17.10;7.95;;;;;;;;;;8142579;29;20058;-88
2022/12/07 11:12:26;;;;;;;26.30;10.15;;;;;;;;;;8142564;29;20058;-84
2022/12/07 11:16:50;;;;;;;30.05;9.35;;;;;;;;;;8142372;29;20048;-90
2022/12/07 11:21:00;;;;;;;22.48;9.30;;;;;;;;;;8142092;29;20048;-87
2022/12/07 11:25:18;;;;;;;20.65;9.93;;;;;;;;;;8142104;29;20086;-88
2022/12/07 11:29:52;;;;;;;17.05;8.20;;;;;;;;;;8142013;29;20040;-88
2022/12/07 11:34:01;;;;;;;16.33;8.10;;;;;;;;;;8120336;29;20108;-84
2022/12/07 11:38:12;;;;;;;18.30;9.40;;;;;;;;;;8141590;29;20605;-89
2022/12/07 11:42:19;;;;;;;21.33;12.15;;;;;;;;;;8141629;29;20479;-85
2022/12/07 11:46:27;;;;;;;22.25;15.27;;;;;;;;;;8141295;29;20052;-89
2022/12/07 11:50:37;;;;;;;15.00;8.70;;;;;;;;;;8141200;29;20056;-87
2022/12/07 11:54:43;;;;;;;15.60;8.60;;;;;;;;;;8141105;29;20071;-86
2022/12/07 11:58:50;;;;;;;18.60;10.40;;;;;;;;;;8141101;29;20123;-84
2022/12/07 12:03:00;;;;;;;18.10;10.35;;;;;;;;;;8140999;29;20052;-88
2022/12/07 12:07:08;;;;;;;21.30;11.05;;;;;;;;;;8127810;29;20056;-86
2022/12/07 12:11:30;;;;;;;20.45;10.52;;;;;;;;;;8141108;29;20532;-89
2022/12/07 12:15:46;;;;;;;20.50;11.15;;;;;;;;;;8140713;29;20674;-86
2022/12/07 12:20:02;;;;;;;24.98;11.65;;;;;;;;;;8140426;29;20135;-85
2022/12/07 12:24:14;;;;;;;26.83;12.85;;;;;;;;;;8140255;29;20732;-85
2022/12/07 12:28:27;;;;;;;24.25;12.52;;;;;;;;;;8140225;29;20052;-84
2022/12/07 12:32:39;;;;;;;26.23;13.52;;;;;;;;;;8140501;29;20141;-85
2022/12/07 12:36:47;;;;;;;33.17;16.73;;;;;;;;;;8140015;29;20051;-89
2022/12/07 12:40:51;;;;;;;40.95;17.63;;;;;;;;;;8139869;29;20048;-84
2022/12/07 12:45:20;;;;;;;30.23;15.30;;;;;;;;;;8139425;29;20056;-88
2022/12/07 12:49:36;;;;;;;23.52;12.10;;;;;;;;;;8125138;29;20087;-88
2022/12/07 12:53:39;;;;;;;20.33;10.48;;;;;;;;;;8139822;29;20403;-88
2022/12/07 12:57:43;;;;;;;15.23;8.50;;;;;;;;;;8139228;29;20080;-88
2022/12/07 13:01:48;;;;;;;18.75;9.30;;;;;;;;;;8139039;29;20044;-87
2022/12/07 13:06:21;;;;;;;25.20;12.20;;;;;;;;;;8138478;29;20139;-87
2022/12/07 13:10:42;;;;;;;25.73;12.82;;;;;;;;;;8138923;29;20044;-88
2022/12/07 13:14:56;;;;;;;19.88;9.60;;;;;;;;;;8138835;29;20082;-89
2022/12/07 13:18:59;;;;;;;20.25;11.15;;;;;;;;;;8138750;29;20060;-88
2022/12/07 13:23:03;;;;;;;21.30;10.18;;;;;;;;;;8138542;29;20050;-89
2022/12/07 13:27:11;;;;;;;19.42;9.90;;;;;;;;;;8138389;29;20048;-88
2022/12/07 13:31:32;;;;;;;47.15;20.27;;;;;;;;;;8138332;29;20423;-85
2022/12/07 13:35:37;;;;;;;14.55;7.18;;;;;;;;;;8138218;29;20086;-89
2022/12/07 13:39:47;;;;;;;27.25;15.63;;;;;;;;;;8137917;29;20048;-89
2022/12/07 13:44:01;;;;;;;19.90;10.90;;;;;;;;;;8137968;29;20090;-88
2022/12/07 13:48:06;;;;;;;18.88;9.07;;;;;;;;;;8137623;29;20084;-83
2022/12/07 13:52:17;;;;;;;23.67;11.88;;;;;;;;;;8137541;29;20390;-84
2022/12/07 13:56:27;;;;;;;24.50;11.70;;;;;;;;;;8137674;29;20051;-86
2022/12/07 14:00:31;;;;;;;24.55;11.50;;;;;;;;;;8113649;29;20052;-89
2022/12/07 14:04:37;;;;;;;18.85;9.25;;;;;;;;;;8131527;29;20079;-86
2022/12/07 14:08:40;;;;;;;20.23;10.02;;;;;;;;;;8137232;29;20040;-88
2022/12/07 14:12:43;;;;;;;15.38;8.20;;;;;;;;;;8137287;29;20095;-87
2022/12/07 14:17:00;;;;;;;23.40;8.55;;;;;;;;;;8136358;29;20056;-88
2022/12/07 14:21:16;;;;;;;23.40;9.00;;;;;;;;;;8137121;29;20066;-85
2022/12/07 14:25:21;;;;;;;11.15;4.93;;;;;;;;;;8137164;29;20052;-87
2022/12/07 14:29:34;;;;;;;25.70;11.30;;;;;;;;;;8137051;29;20036;-88
2022/12/07 14:33:37;;;;;;;23.90;9.95;;;;;;;;;;8137164;29;20048;-86
2022/12/07 14:37:43;;;;;;;20.38;10.05;;;;;;;;;;8136885;29;20588;-83
2022/12/07 14:41:51;;;;;;;24.38;10.98;;;;;;;;;;8136847;29;20048;-89
2022/12/07 14:45:55;;;;;;;21.02;9.48;;;;;;;;;;8136716;29;20052;-90
2022/12/07 14:49:58;;;;;;;20.38;10.25;;;;;;;;;;8136811;29;20075;-89
2022/12/07 14:54:03;;;;;;;19.73;9.73;;;;;;;;;;8136638;29;20056;-85
2022/12/07 14:58:05;;;;;;;18.65;9.07;;;;;;;;;;8136503;29;20052;-88
2022/12/07 15:02:11;;;;;;;19.48;9.70;;;;;;;;;;8136984;29;20481;-86
2022/12/07 15:06:16;;;;;;;24.95;10.45;;;;;;;;;;8136488;29;20059;-87
2022/12/07 15:10:23;;;;;;;20.73;10.05;;;;;;;;;;8136420;29;20048;-84
2022/12/07 15:14:25;;;;;;;19.73;9.75;;;;;;;;;;8136458;29;20536;-88
2022/12/07 15:18:28;;;;;;;27.85;13.23;;;;;;;;;;8136603;29;20051;-87
2022/12/07 15:22:31;;;;;;;28.42;14.15;;;;;;;;;;8136148;29;20090;-88
2022/12/07 15:26:35;;;;;;;38.50;18.05;;;;;;;;;;8136142;29;20047;-87
2022/12/07 15:30:38;;;;;;;61.35;22.10;;;;;;;;;;8141560;29;20051;-88
2022/12/07 15:34:41;;;;;;;33.42;15.73;;;;;;;;;;8141664;29;20047;-86
2022/12/07 15:38:44;;;;;;;25.02;11.82;;;;;;;;;;8141988;29;20495;-86
2022/12/07 15:42:48;;;;;;;25.02;12.15;;;;;;;;;;8141503;29;20064;-86
2022/12/07 15:46:51;;;;;;;21.38;8.95;;;;;;;;;;8141335;29;20040;-88
2022/12/07 15:50:54;;;;;;;24.08;13.18;;;;;;;;;;8141174;29;20067;-84
2022/12/07 15:54:57;;;;;;;24.05;11.52;;;;;;;;;;8141510;29;20381;-85
2022/12/07 15:59:01;;;;;;;19.15;9.98;;;;;;;;;;8141512;29;20139;-86
2022/12/07 16:03:04;;;;;;;22.33;10.70;;;;;;;;;;8140898;29;20052;-87
2022/12/07 16:07:11;;;;;;;20.95;10.80;;;;;;;;;;8140726;29;20044;-87
2022/12/07 16:11:14;;;;;;;28.63;12.35;;;;;;;;;;8140771;29;20068;-87
2022/12/07 16:15:18;;;;;;;26.00;13.30;;;;;;;;;;8140444;29;20052;-84
2022/12/07 16:19:22;;;;;;;22.50;9.70;;;;;;;;;;8140399;29;20131;-86
2022/12/07 16:23:24;;;;;;;27.83;13.98;;;;;;;;;;8140301;29;20462;-86
2022/12/07 16:27:27;;;;;;;22.98;9.93;;;;;;;;;;8139987;29;20083;-85
2022/12/07 16:31:31;;;;;;;17.48;8.18;;;;;;;;;;8140086;29;20048;-87
2022/12/07 16:35:35;;;;;;;21.35;10.38;;;;;;;;;;8140035;29;20048;-88
2022/12/07 16:39:37;;;;;;;20.85;10.50;;;;;;;;;;8138919;29;20568;-85
2022/12/07 16:43:41;;;;;;;6.68;4.07;;;;;;;;;;8139578;29;20052;-84
2022/12/07 16:47:45;;;;;;;25.73;12.32;;;;;;;;;;8139979;29;20668;-87
2022/12/07 16:51:50;;;;;;;18.13;9.05;;;;;;;;;;8139353;29;20071;-86
2022/12/07 16:55:53;;;;;;;20.08;10.13;;;;;;;;;;8139523;29;20123;-88
2022/12/07 16:59:56;;;;;;;20.10;9.25;;;;;;;;;;8139203;29;20044;-88
2022/12/07 17:04:00;;;;;;;19.33;8.45;;;;;;;;;;8139073;29;20059;-85
2022/12/07 17:08:03;;;;;;;15.85;8.23;;;;;;;;;;8139014;29;20588;-87
2022/12/07 17:12:09;;;;;;;21.50;8.48;;;;;;;;;;8139188;29;20050;-87
2022/12/07 17:16:12;;;;;;;16.83;8.65;;;;;;;;;;8139130;29;20526;-87
2022/12/07 17:20:17;;;;;;;17.90;7.88;;;;;;;;;;8138654;29;20079;-87
2022/12/07 17:24:20;;;;;;;12.90;6.95;;;;;;;;;;8139764;29;20465;-86
2022/12/07 17:28:23;;;;;;;16.77;8.52;;;;;;;;;;8138312;29;20060;-87
2022/12/07 17:32:29;;;;;;;17.42;8.10;;;;;;;;;;8138252;29;20044;-87
2022/12/07 17:36:33;;;;;;;11.88;5.68;;;;;;;;;;8138196;29;20074;-86
2022/12/07 17:40:36;;;;;;;14.82;7.70;;;;;;;;;;8138078;29;20131;-86
2022/12/07 17:44:40;;;;;;;7.90;4.85;;;;;;;;;;8138200;29;20044;-88
2022/12/07 17:48:44;;;;;;;14.32;7.10;;;;;;;;;;8137873;29;20397;-84
2022/12/07 17:57:08;;;;;;;21.37;10.17;;;;;;;;;;8137658;29;20071;-88
2022/12/07 18:01:11;;;;;;;20.33;9.55;;;;;;;;;;8137537;29;20296;-89
2022/12/07 18:05:16;;;;;;;21.42;9.70;;;;;;;;;;8137869;29;20051;-87
2022/12/07 18:09:22;;;;;;;23.63;8.60;;;;;;;;;;8137261;29;20099;-85
2022/12/07 18:13:38;;;;;;;21.27;10.00;;;;;;;;;;8137215;29;20052;-88
2022/12/07 18:17:42;;;;;;;23.45;12.02;;;;;;;;;;8137189;29;20048;-88
2022/12/07 18:21:46;;;;;;;27.50;10.80;;;;;;;;;;8137127;29;20048;-88
2022/12/07 18:25:51;;;;;;;21.67;10.10;;;;;;;;;;8136927;29;20082;-88
2022/12/07 18:29:55;;;;;;;29.23;12.75;;;;;;;;;;8137050;29;20498;-88
2022/12/07 18:34:03;;;;;;;24.50;10.77;;;;;;;;;;8136915;29;20072;-87
2022/12/07 18:38:08;;;;;;;22.17;10.82;;;;;;;;;;8137019;29;20054;-88
2022/12/07 18:42:13;;;;;;;23.73;9.90;;;;;;;;;;8137205;29;20433;-88
2022/12/07 18:46:18;;;;;;;20.92;9.35;;;;;;;;;;8136709;29;20128;-88
2022/12/07 18:50:21;;;;;;;24.20;11.40;;;;;;;;;;8136530;29;20522;-87
2022/12/07 18:54:24;;;;;;;25.52;10.18;;;;;;;;;;8136731;29;20131;-88
2022/12/07 18:58:30;;;;;;;30.45;14.02;;;;;;;;;;8136538;29;20060;-87
2022/12/07 19:02:34;;;;;;;28.95;11.02;;;;;;;;;;8137456;29;20048;-88
2022/12/07 19:06:41;;;;;;;23.30;10.10;;;;;;;;;;8142350;29;20063;-87
2022/12/07 19:10:44;;;;;;;27.10;12.20;;;;;;;;;;8142465;29;20052;-88
2022/12/07 19:14:53;;;;;;;26.85;12.05;;;;;;;;;;8141693;29;20060;-86
2022/12/07 19:18:57;;;;;;;25.45;10.63;;;;;;;;;;8142045;29;20171;-88
2022/12/07 19:23:01;;;;;;;24.13;11.60;;;;;;;;;;8141988;29;20051;-85
2022/12/07 19:27:06;;;;;;;22.42;9.88;;;;;;;;;;8141894;29;20465;-88
2022/12/07 19:31:17;;;;;;;27.25;12.02;;;;;;;;;;8141879;29;20060;-88
2022/12/07 19:35:22;;;;;;;31.75;12.15;;;;;;;;;;8141758;29;20055;-87
2022/12/07 19:39:28;;;;;;;28.45;13.32;;;;;;;;;;8141659;29;20052;-87
2022/12/07 19:43:35;;;;;;;26.02;11.02;;;;;;;;;;8141689;29;20048;-88
2022/12/07 19:47:41;;;;;;;30.60;14.07;;;;;;;;;;8141412;29;20052;-86
2022/12/07 19:51:49;;;;;;;30.65;13.40;;;;;;;;;;8111633;29;20507;-88
2022/12/07 19:55:53;;;;;;;30.45;14.35;;;;;;;;;;8135226;29;20055;-86
2022/12/07 20:00:01;;;;;;;30.17;13.93;;;;;;;;;;8118733;29;20552;-86
2022/12/07 20:04:09;;;;;;;42.88;17.48;;;;;;;;;;8121028;29;20051;-88
2022/12/07 20:08:15;;;;;;;35.00;15.80;;;;;;;;;;8126963;29;20088;-89
2022/12/07 20:16:44;;;;;;;29.80;12.82;;;;;;;;;;8150603;29;20408;-85
2022/12/07 20:20:56;;;;;;;25.50;11.70;;;;;;;;;;8129932;29;20066;-89
2022/12/07 20:25:01;;;;;;;27.23;12.10;;;;;;;;;;8129005;29;20044;-88
2022/12/07 20:29:06;;;;;;;29.73;12.73;;;;;;;;;;8139279;29;20075;-87
2022/12/07 20:33:10;;;;;;;35.70;14.73;;;;;;;;;;8140417;29;20143;-89
2022/12/07 20:37:16;;;;;;;27.52;12.60;;;;;;;;;;8121914;29;20052;-87
2022/12/07 20:45:45;;;;;;;31.15;13.32;;;;;;;;;;8136836;29;20495;-89
2022/12/07 20:49:49;;;;;;;41.47;14.90;;;;;;;;;;8136799;29;20056;-84
2022/12/07 20:53:54;;;;;;;42.75;16.88;;;;;;;;;;8137677;29;20442;-88
2022/12/07 20:57:57;;;;;;;34.67;15.68;;;;;;;;;;8139282;29;20052;-85
2022/12/07 21:02:01;;;;;;;31.58;12.65;;;;;;;;;;8139181;29;20048;-88
2022/12/07 21:06:05;;;;;;;22.50;9.90;;;;;;;;;;8139132;29;20115;-86
2022/12/07 21:10:11;;;;;;;25.90;10.60;;;;;;;;;;8139060;29;20126;-85
2022/12/07 21:14:14;;;;;;;18.42;10.05;;;;;;;;;;8138955;29;20044;-89
2022/12/07 21:18:16;;;;;;;23.38;10.35;;;;;;;;;;8139130;29;20221;-89
2022/12/07 21:22:20;;;;;;;22.38;8.85;;;;;;;;;;8138616;29;20428;-84
2022/12/07 21:26:25;;;;;;;20.75;9.13;;;;;;;;;;8138653;29;20539;-88
2022/12/07 21:30:28;;;;;;;20.55;8.95;;;;;;;;;;8138519;29;20044;-90
2022/12/07 21:34:31;;;;;;;24.02;11.35;;;;;;;;;;8138651;29;20472;-88
2022/12/07 21:38:34;;;;;;;22.60;9.52;;;;;;;;;;8138215;29;20051;-89
2022/12/07 21:42:38;;;;;;;21.83;10.52;;;;;;;;;;8138209;29;20047;-88
2022/12/07 21:46:41;;;;;;;27.50;11.32;;;;;;;;;;8137885;29;20055;-88
2022/12/07 21:50:43;;;;;;;30.27;13.55;;;;;;;;;;8137700;29;20196;-85
2022/12/07 21:54:47;;;;;;;20.00;9.98;;;;;;;;;;8138047;29;20056;-86
2022/12/07 21:58:53;;;;;;;22.40;11.20;;;;;;;;;;8137654;29;20189;-84
2022/12/07 22:02:56;;;;;;;33.42;14.20;;;;;;;;;;8136873;29;20067;-82
2022/12/07 22:07:00;;;;;;;17.48;8.40;;;;;;;;;;8137289;29;20052;-88
2022/12/07 22:11:03;;;;;;;34.67;11.32;;;;;;;;;;8137295;29;20055;-86
2022/12/07 22:15:09;;;;;;;32.80;14.20;;;;;;;;;;8137305;29;20620;-88
2022/12/07 22:19:12;;;;;;;24.70;11.93;;;;;;;;;;8137562;29;20096;-88
2022/12/07 22:23:15;;;;;;;24.90;12.00;;;;;;;;;;8137075;29;20122;-85
2022/12/07 22:27:18;;;;;;;23.38;11.38;;;;;;;;;;8137106;29;20044;-87
2022/12/07 22:31:23;;;;;;;38.63;16.50;;;;;;;;;;8137178;29;20051;-84
2022/12/07 22:35:26;;;;;;;25.10;11.15;;;;;;;;;;8137111;29;20048;-85
2022/12/07 22:39:29;;;;;;;27.85;13.23;;;;;;;;;;8140937;29;20052;-88
2022/12/07 22:43:31;;;;;;;30.95;15.52;;;;;;;;;;8143273;29;20060;-86
2022/12/07 22:47:36;;;;;;;27.30;11.15;;;;;;;;;;8143221;29;20119;-87
2022/12/07 22:51:43;;;;;;;22.40;12.25;;;;;;;;;;8142727;29;20056;-85
2022/12/07 22:55:46;;;;;;;27.23;10.60;;;;;;;;;;8143080;29;20073;-88
2022/12/07 22:59:49;;;;;;;25.20;11.80;;;;;;;;;;8142833;29;20052;-86
2022/12/07 23:03:53;;;;;;;26.25;12.43;;;;;;;;;;8142800;29;20046;-84
2022/12/07 23:07:56;;;;;;;30.88;15.05;;;;;;;;;;8142544;29;20052;-85
2022/12/07 23:16:19;;;;;;;22.38;11.30;;;;;;;;;;8142546;29;20514;-87
2022/12/07 23:20:24;;;;;;;31.20;12.63;;;;;;;;;;8142438;29;20497;-87
2022/12/07 23:24:26;;;;;;;32.53;13.50;;;;;;;;;;8142077;29;20123;-89
2022/12/07 23:28:29;;;;;;;33.00;12.27;;;;;;;;;;8142032;29;20059;-89
2022/12/07 23:32:32;;;;;;;31.70;14.10;;;;;;;;;;8141844;29;20052;-84
2022/12/07 23:36:36;;;;;;;27.58;12.88;;;;;;;;;;8141818;29;20091;-88
2022/12/07 23:40:39;;;;;;;26.83;13.27;;;;;;;;;;8141677;29;20135;-89
2022/12/07 23:44:42;;;;;;;33.28;14.57;;;;;;;;;;8141928;29;20420;-89
2022/12/07 23:48:45;;;;;;;26.52;12.15;;;;;;;;;;8141121;29;20075;-89
2022/12/07 23:52:49;;;;;;;28.25;13.38;;;;;;;;;;8141303;29;20514;-89
2022/12/07 23:56:52;;;;;;;30.15;13.52;;;;;;;;;;8141294;29;20123;-85
